Time;durP1;ratioP1;P1;durP2;ratioP2;P2;SDS_P1;SDS_P2;PMS_P1;PMS_P2;Temp;Humidity;BMP_temperature;BMP_pressure;BME280_temperature;BME280_humidity;BME280_pressure;Samples;Min_cycle;Max_cycle;Signal;HPM_P1;HPM_P2
2022/10/25 00:00:05;;;;;;;409.48;302.88;;;;;;;15.20;74.44;99984.16;344660;28;989;-77
2022/10/25 00:00:16;;;;;;;411.42;300.67;;;;;;;15.18;74.50;99983.41;345806;28;2104;-76
2022/10/25 00:00:27;;;;;;;407.07;292.63;;;;;;;15.17;74.62;99986.97;349883;28;1851;-76
2022/10/25 00:00:38;;;;;;;407.45;291.58;;;;;;;15.15;74.52;99986.22;349166;28;1314;-76
2022/10/25 00:00:49;;;;;;;406.25;297.63;;;;;;;15.16;74.28;99980.84;343750;28;1304;-75
2022/10/25 00:00:59;;;;;;;406.20;298.43;;;;;;;15.18;74.44;99988.66;343511;28;1278;-76
2022/10/25 00:01:14;;;;;;;407.33;294.42;;;;;;;15.19;74.62;99990.38;346280;28;928;-76
2022/10/25 00:01:25;;;;;;;406.35;287.00;;;;;;;15.20;74.43;99986.81;346118;28;1310;-76
2022/10/25 00:01:42;;;;;;;404.45;287.75;;;;;;;15.21;74.56;99985.88;343483;28;1100;-76
2022/10/25 00:01:53;;;;;;;402.88;290.60;;;;;;;15.20;74.15;99992.06;339825;28;1466;-76
2022/10/25 00:02:03;;;;;;;403.20;294.80;;;;;;;15.20;74.38;99986.81;340892;29;868;-76
2022/10/25 00:02:15;;;;;;;408.43;305.17;;;;;;;15.21;74.35;99991.16;340062;29;1890;-76
2022/10/25 00:02:29;;;;;;;408.05;299.92;;;;;;;15.23;74.13;99987.50;338897;29;1442;-76
2022/10/25 00:02:40;;;;;;;408.85;295.85;;;;;;;15.24;74.17;99978.66;341427;28;1643;-76
2022/10/25 00:02:50;;;;;;;403.45;289.70;;;;;;;15.24;74.01;99989.19;338052;29;1921;-76
2022/10/25 00:03:00;;;;;;;400.57;290.87;;;;;;;15.23;74.28;99984.00;334381;29;1319;-75
2022/10/25 00:03:11;;;;;;;404.08;292.33;;;;;;;15.24;74.22;99988.34;338971;29;990;-76
2022/10/25 00:03:21;;;;;;;407.03;298.20;;;;;;;15.22;74.28;99984.94;339769;29;1188;-76
2022/10/25 00:03:32;;;;;;;408.83;293.55;;;;;;;15.22;74.46;99984.94;337365;29;921;-76
2022/10/25 00:03:42;;;;;;;407.03;291.63;;;;;;;15.22;74.22;99984.94;336468;29;973;-76
2022/10/25 00:03:52;;;;;;;404.80;283.90;;;;;;;15.24;74.05;99977.78;337799;28;1507;-76
2022/10/25 00:04:03;;;;;;;401.88;287.77;;;;;;;15.23;74.00;99981.38;339473;29;1294;-77
2022/10/25 00:04:14;;;;;;;401.87;290.23;;;;;;;15.23;74.06;99986.66;332035;29;3432;-76
2022/10/25 00:04:24;;;;;;;408.63;300.52;;;;;;;15.22;74.49;99987.56;333405;29;2001;-76
2022/10/25 00:04:35;;;;;;;410.63;301.38;;;;;;;15.21;74.27;99985.88;332343;29;2243;-76
2022/10/25 00:04:45;;;;;;;409.57;299.23;;;;;;;15.22;74.26;99975.25;327488;30;1559;-76
2022/10/25 00:04:55;;;;;;;406.67;295.08;;;;;;;15.24;74.00;99975.16;326285;30;2207;-75
2022/10/25 00:05:06;;;;;;;406.13;292.13;;;;;;;15.25;74.37;99983.00;326345;30;1866;-75
2022/10/25 00:05:17;;;;;;;405.02;290.27;;;;;;;15.25;73.99;99987.41;328167;30;904;-76
2022/10/25 00:05:27;;;;;;;401.90;288.60;;;;;;;15.24;74.22;99978.66;324692;30;1282;-76
2022/10/25 00:05:38;;;;;;;405.37;295.10;;;;;;;15.25;74.09;99980.34;326562;30;1876;-76
2022/10/25 00:05:49;;;;;;;406.38;297.67;;;;;;;15.27;74.17;99982.91;327214;30;1432;-76
2022/10/25 00:05:59;;;;;;;408.95;299.75;;;;;;;15.27;73.85;99977.63;326747;30;1820;-76
2022/10/25 00:06:10;;;;;;;409.23;298.80;;;;;;;15.29;73.81;99978.41;325413;30;2190;-76
2022/10/25 00:06:20;;;;;;;408.33;297.30;;;;;;;15.29;73.99;99978.41;323999;30;2254;-76
2022/10/25 00:06:31;;;;;;;407.67;301.08;;;;;;;15.30;74.05;99980.09;321173;30;1854;-76
2022/10/25 00:06:41;;;;;;;408.67;306.77;;;;;;;15.29;74.06;99973.13;322952;30;2559;-77
2022/10/25 00:06:52;;;;;;;410.08;307.60;;;;;;;15.28;73.70;99977.56;321726;30;2581;-76
2022/10/25 00:07:02;;;;;;;411.40;304.27;;;;;;;15.29;74.31;99981.03;322191;30;1347;-76
2022/10/25 00:07:13;;;;;;;409.10;295.30;;;;;;;15.26;73.92;99974.16;322564;30;2770;-76
2022/10/25 00:07:23;;;;;;;406.57;293.63;;;;;;;15.27;74.27;99972.34;327514;30;2364;-77
2022/10/25 00:07:33;;;;;;;405.50;287.92;;;;;;;15.27;74.11;99972.34;328202;30;1262;-77
2022/10/25 00:07:44;;;;;;;408.03;291.60;;;;;;;15.25;74.07;99975.06;322346;30;1707;-77
2022/10/25 00:07:54;;;;;;;411.63;290.90;;;;;;;15.27;73.93;99977.63;320225;30;1986;-77
2022/10/25 00:08:05;;;;;;;409.65;295.08;;;;;;;15.25;74.51;99974.22;319315;30;2535;-76
2022/10/25 00:08:15;;;;;;;410.05;297.35;;;;;;;15.25;73.96;99979.50;318653;31;1048;-76
2022/10/25 00:08:26;;;;;;;406.53;298.63;;;;;;;15.23;74.05;99976.94;318741;30;2734;-76
2022/10/25 00:08:36;;;;;;;404.75;291.63;;;;;;;15.22;74.24;99974.38;319814;30;3101;-76
2022/10/25 00:08:47;;;;;;;404.67;288.33;;;;;;;15.20;74.21;99970.97;320894;30;1202;-77
2022/10/25 00:08:57;;;;;;;405.87;290.13;;;;;;;15.18;74.36;99976.34;318805;30;3300;-76
2022/10/25 00:09:08;;;;;;;405.73;297.87;;;;;;;15.20;74.31;99984.16;317938;30;3413;-78
2022/10/25 00:09:18;;;;;;;405.05;303.13;;;;;;;15.18;74.12;99978.97;317306;31;1846;-75
2022/10/25 00:09:28;;;;;;;404.63;301.10;;;;;;;15.17;74.44;99977.28;313364;31;3160;-75
2022/10/25 00:09:39;;;;;;;406.93;299.10;;;;;;;15.16;74.41;99980.84;311564;31;2314;-75
2022/10/25 00:09:49;;;;;;;410.05;298.75;;;;;;;15.17;74.17;99981.69;311803;31;1342;-77
2022/10/25 00:09:59;;;;;;;409.37;294.83;;;;;;;15.17;74.53;99981.69;310673;31;1516;-78
2022/10/25 00:10:10;;;;;;;406.83;294.05;;;;;;;15.17;74.44;99976.41;306310;31;2858;-77
2022/10/25 00:10:20;;;;;;;404.80;289.07;;;;;;;15.16;74.35;99974.75;305094;31;3487;-77
2022/10/25 00:10:31;;;;;;;408.75;294.00;;;;;;;15.17;74.70;99984.34;308520;32;906;-76
2022/10/25 00:10:42;;;;;;;411.35;296.70;;;;;;;15.17;74.54;99977.28;305298;32;4049;-76
2022/10/25 00:10:52;;;;;;;413.87;302.63;;;;;;;15.17;74.54;99976.41;302559;32;4522;-76
2022/10/25 00:11:03;;;;;;;413.95;301.92;;;;;;;15.15;74.60;99984.44;302318;32;1258;-76
2022/10/25 00:11:30;;;;;;;410.05;300.65;;;;;;;15.16;74.53;99974.75;299236;32;5414;-76
2022/10/25 00:11:40;;;;;;;401.30;290.67;;;;;;;15.15;74.54;99973.91;297124;32;4378;-77
2022/10/25 00:11:50;;;;;;;401.88;294.02;;;;;;;15.15;74.38;99975.69;294677;33;2971;-77
2022/10/25 00:12:01;;;;;;;403.73;299.03;;;;;;;15.13;74.58;99978.41;296044;33;1295;-77
2022/10/25 00:12:11;;;;;;;405.45;299.95;;;;;;;15.15;74.60;99978.31;293036;33;3265;-77
2022/10/25 00:12:22;;;;;;;406.00;299.57;;;;;;;15.14;74.33;99977.47;293971;32;4233;-77
2022/10/25 00:12:32;;;;;;;407.77;300.73;;;;;;;15.14;74.49;99973.97;297120;33;1161;-76
2022/10/25 00:12:43;;;;;;;408.53;302.03;;;;;;;15.14;74.27;99979.25;297495;32;5078;-76
2022/10/25 00:12:53;;;;;;;408.90;301.23;;;;;;;15.14;74.57;99977.47;296600;32;6475;-76
2022/10/25 00:13:04;;;;;;;405.27;296.23;;;;;;;15.15;74.30;99978.31;294105;33;1305;-76
2022/10/25 00:13:15;;;;;;;402.87;294.07;;;;;;;15.14;74.13;99974.84;295829;33;2884;-76
2022/10/25 00:13:25;;;;;;;406.48;294.67;;;;;;;15.13;74.13;99978.41;294541;33;6748;-76
2022/10/25 00:13:35;;;;;;;409.50;299.63;;;;;;;15.14;74.57;99979.25;290215;33;5920;-76
2022/10/25 00:13:49;;;;;;;409.55;300.80;;;;;;;15.15;74.37;99978.31;292458;33;1110;-76
2022/10/25 00:14:02;;;;;;;405.27;298.98;;;;;;;15.15;74.23;99978.31;289367;34;960;-76
2022/10/25 00:14:17;;;;;;;405.13;292.67;;;;;;;15.14;74.39;99972.19;287562;33;4460;-76
2022/10/25 00:14:27;;;;;;;409.80;289.23;;;;;;;15.16;74.26;99978.22;286859;34;5558;-77
2022/10/25 00:14:38;;;;;;;414.70;299.90;;;;;;;15.15;74.57;99973.91;284056;34;6875;-77
2022/10/25 00:14:48;;;;;;;415.40;302.43;;;;;;;15.15;74.60;99973.03;282850;35;996;-77
2022/10/25 00:15:02;;;;;;;411.90;305.70;;;;;;;15.16;74.24;99977.38;282155;34;7132;-77
2022/10/25 00:15:13;;;;;;;405.64;297.96;;;;;;;15.15;74.36;99979.16;282421;34;8251;-77
2022/10/25 00:15:23;;;;;;;403.50;299.53;;;;;;;15.15;74.28;99978.31;279401;35;9169;-77
2022/10/25 00:15:33;;;;;;;406.15;304.65;;;;;;;15.14;74.21;99976.63;280016;35;1526;-77
2022/10/25 00:15:44;;;;;;;408.87;302.67;;;;;;;15.13;74.40;99975.75;279455;35;9487;-77
2022/10/25 00:17:42;;;;;;;387.83;260.38;;;;;;;15.12;74.30;99978.47;2496966;27;20487;-77
2022/10/25 00:17:52;;;;;;;402.17;290.47;;;;;;;15.11;74.97;99976.78;351608;28;1280;-77
2022/10/25 00:18:03;;;;;;;407.35;291.95;;;;;;;15.10;74.42;99972.44;350384;28;1239;-77
2022/10/25 00:18:13;;;;;;;408.70;290.53;;;;;;;15.11;74.14;99972.34;348927;28;1680;-76
2022/10/25 00:18:24;;;;;;;406.85;286.10;;;;;;;15.11;73.82;99972.34;349037;28;1335;-76
2022/10/25 00:18:34;;;;;;;405.17;286.63;;;;;;;15.10;74.46;99978.56;351886;28;934;-76
2022/10/25 00:18:45;;;;;;;404.35;289.33;;;;;;;15.11;74.53;99976.78;350477;28;841;-76
2022/10/25 00:18:55;;;;;;;403.20;291.73;;;;;;;15.10;74.41;99980.34;348886;28;1697;-76
2022/10/25 00:19:05;;;;;;;405.27;294.17;;;;;;;15.09;74.28;99979.50;347657;28;2043;-76
2022/10/25 00:19:16;;;;;;;408.37;291.07;;;;;;;15.08;74.35;99975.16;348408;28;1621;-76
2022/10/25 00:19:26;;;;;;;408.15;291.58;;;;;;;15.08;74.51;99969.88;351800;28;1295;-76
2022/10/25 00:19:37;;;;;;;406.50;290.10;;;;;;;15.08;74.26;99972.53;350452;28;1842;-77
2022/10/25 00:19:47;;;;;;;405.63;295.40;;;;;;;15.08;74.38;99976.94;349173;28;960;-77
2022/10/25 00:19:57;;;;;;;408.40;301.50;;;;;;;15.07;74.07;99970.81;350318;28;974;-77
2022/10/25 00:20:09;;;;;;;409.87;303.20;;;;;;;15.06;74.63;99974.38;348948;28;1199;-77
2022/10/25 00:20:19;;;;;;;408.00;300.55;;;;;;;15.07;74.40;99973.47;348779;28;1423;-77
2022/10/25 00:20:30;;;;;;;406.80;295.33;;;;;;;15.06;74.53;99973.53;347673;28;1210;-77
2022/10/25 00:20:40;;;;;;;408.17;298.33;;;;;;;15.07;74.63;99967.34;346157;28;1215;-76
2022/10/25 00:20:51;;;;;;;409.43;298.43;;;;;;;15.07;74.22;99970.81;346276;28;1876;-76
2022/10/25 00:21:03;;;;;;;409.70;299.85;;;;;;;15.08;74.51;99972.53;350207;28;1228;-76
2022/10/25 00:21:13;;;;;;;411.45;303.60;;;;;;;15.08;74.87;99969.88;347631;28;936;-76
2022/10/25 00:21:24;;;;;;;412.33;308.00;;;;;;;15.07;74.62;99975.25;346096;28;2270;-76
2022/10/25 00:21:34;;;;;;;409.87;304.73;;;;;;;15.07;74.39;99975.25;348964;28;1148;-76
2022/10/25 00:21:45;;;;;;;409.98;304.73;;;;;;;15.07;74.74;99968.19;346540;28;1210;-76
2022/10/25 00:21:55;;;;;;;408.13;300.30;;;;;;;15.07;75.01;99967.34;344861;28;1208;-76
2022/10/25 00:22:06;;;;;;;407.65;299.50;;;;;;;15.07;74.68;99975.25;343572;28;1014;-78
2022/10/25 00:22:16;;;;;;;404.67;296.03;;;;;;;15.06;74.59;99973.53;344892;28;1336;-77
2022/10/25 00:22:29;;;;;;;404.48;298.85;;;;;;;15.07;74.81;99977.88;348925;28;1271;-77
2022/10/25 00:22:40;;;;;;;402.00;298.88;;;;;;;15.04;74.84;99973.63;347450;28;1854;-77
2022/10/25 00:22:50;;;;;;;400.70;295.90;;;;;;;15.06;74.55;99979.66;343853;28;2691;-77
2022/10/25 00:23:00;;;;;;;403.25;294.52;;;;;;;15.06;74.63;99968.25;346199;28;1419;-77
2022/10/25 00:23:12;;;;;;;403.37;293.50;;;;;;;15.06;74.84;99973.53;343553;28;1189;-77
2022/10/25 00:23:22;;;;;;;405.48;295.50;;;;;;;15.05;74.63;99977.09;343235;28;1930;-77
2022/10/25 00:23:33;;;;;;;406.67;297.90;;;;;;;15.04;74.78;99972.75;343316;28;1334;-77
2022/10/25 00:23:43;;;;;;;407.85;295.13;;;;;;;15.05;74.71;99977.09;340676;29;1822;-76
2022/10/25 00:23:53;;;;;;;409.17;298.70;;;;;;;15.03;74.65;99974.56;343417;28;1788;-77
2022/10/25 00:24:04;;;;;;;409.20;298.73;;;;;;;15.05;74.46;99972.69;342443;28;1258;-77
2022/10/25 00:24:15;;;;;;;406.67;297.20;;;;;;;15.05;74.34;99977.09;343753;28;1281;-77
2022/10/25 00:24:25;;;;;;;402.75;289.48;;;;;;;15.04;74.82;99964.84;344605;28;1381;-77
2022/10/25 00:24:36;;;;;;;406.57;292.77;;;;;;;15.04;74.56;99972.75;342138;28;953;-77
2022/10/25 00:24:46;;;;;;;407.38;293.73;;;;;;;15.03;74.59;99971.91;343624;28;984;-77
2022/10/25 00:24:56;;;;;;;408.83;296.33;;;;;;;15.03;74.60;99974.56;342144;28;1201;-77
2022/10/25 00:25:07;;;;;;;406.92;292.27;;;;;;;15.03;74.71;99973.69;341327;28;941;-77
2022/10/25 00:25:17;;;;;;;408.93;292.90;;;;;;;15.00;74.75;99979.13;340834;29;981;-77
2022/10/25 00:25:28;;;;;;;407.10;292.85;;;;;;;14.97;74.65;99970.44;343631;28;970;-77
2022/10/25 00:25:38;;;;;;;405.77;287.27;;;;;;;14.97;74.82;99974.88;345363;28;1444;-77
2022/10/25 00:25:48;;;;;;;403.55;285.92;;;;;;;14.99;74.70;99973.00;343957;28;1517;-77
2022/10/25 00:26:03;;;;;;;404.27;285.93;;;;;;;14.98;74.74;99977.44;340372;29;1230;-77
2022/10/25 00:26:13;;;;;;;403.02;282.25;;;;;;;14.98;75.49;99974.78;334045;29;2098;-77
2022/10/25 00:26:24;;;;;;;404.80;289.97;;;;;;;14.95;74.84;99982.00;340052;29;1543;-77
2022/10/25 00:26:34;;;;;;;404.35;296.52;;;;;;;14.95;74.75;99977.59;339276;29;1915;-77
2022/10/25 00:26:45;;;;;;;405.93;299.90;;;;;;;14.95;74.83;99974.09;339526;29;1327;-77
2022/10/25 00:26:55;;;;;;;404.57;296.43;;;;;;;14.95;74.90;99974.94;334426;29;1008;-77
2022/10/25 00:27:05;;;;;;;405.52;298.48;;;;;;;14.96;75.12;99979.28;337631;29;889;-77
2022/10/25 00:27:16;;;;;;;405.70;299.13;;;;;;;14.96;74.91;99974.03;338100;29;1483;-77
2022/10/25 00:27:26;;;;;;;405.77;295.02;;;;;;;14.95;74.95;99977.59;336906;29;1277;-77
2022/10/25 00:27:37;;;;;;;407.90;293.20;;;;;;;14.94;74.96;99975.88;334082;29;1526;-77
2022/10/25 00:27:47;;;;;;;406.80;291.13;;;;;;;14.95;75.08;99972.31;327877;29;1870;-77
2022/10/25 00:27:57;;;;;;;408.20;294.77;;;;;;;14.95;75.08;99976.75;329340;29;1298;-77
2022/10/25 00:28:08;;;;;;;406.73;289.30;;;;;;;14.95;74.79;99977.59;327967;29;1823;-77
2022/10/25 00:28:18;;;;;;;410.30;293.60;;;;;;;14.95;74.96;99971.47;327418;29;1915;-77
2022/10/25 00:28:29;;;;;;;411.52;297.08;;;;;;;14.94;75.04;99975.88;329467;30;955;-77
2022/10/25 00:28:39;;;;;;;411.30;301.03;;;;;;;14.94;74.89;99973.25;331419;29;2089;-77
2022/10/25 00:28:52;;;;;;;411.85;305.13;;;;;;;14.95;75.12;99976.75;330035;29;1792;-77
2022/10/25 00:29:02;;;;;;;413.48;303.38;;;;;;;14.93;75.28;99974.19;328045;30;916;-77
2022/10/25 00:29:13;;;;;;;412.63;306.17;;;;;;;14.94;75.29;99975.88;330417;29;1658;-77
2022/10/25 00:29:23;;;;;;;411.07;304.63;;;;;;;14.93;75.33;99979.44;329435;29;1398;-77
2022/10/25 00:29:34;;;;;;;404.60;297.70;;;;;;;14.92;75.33;99980.38;331903;29;1655;-77
2022/10/25 00:29:44;;;;;;;403.67;289.57;;;;;;;14.91;75.52;99973.41;330588;29;1348;-77
2022/10/25 00:29:54;;;;;;;405.13;289.92;;;;;;;14.91;75.38;99976.03;326366;30;2089;-77
2022/10/25 00:30:05;;;;;;;407.33;294.53;;;;;;;14.92;75.44;99977.75;325981;30;2456;-76
2022/10/25 00:30:16;;;;;;;408.75;297.00;;;;;;;14.90;75.26;99979.63;325421;29;2138;-77
2022/10/25 00:30:26;;;;;;;405.23;291.27;;;;;;;14.90;75.57;99979.63;325674;30;1276;-77
2022/10/25 00:30:37;;;;;;;405.83;295.33;;;;;;;14.89;75.64;99977.91;324254;30;2423;-77
2022/10/25 00:30:47;;;;;;;405.50;297.40;;;;;;;14.89;75.28;99977.91;325537;30;2692;-77
2022/10/25 00:30:59;;;;;;;406.87;300.27;;;;;;;14.90;75.41;99974.34;328030;30;1276;-77
2022/10/25 00:31:12;;;;;;;403.38;287.38;;;;;;;14.89;75.31;99977.91;326868;30;1823;-77
2022/10/25 00:31:23;;;;;;;402.50;287.60;;;;;;;14.89;75.23;99972.63;325421;30;932;-77
2022/10/25 00:31:33;;;;;;;403.27;291.05;;;;;;;14.89;75.34;99972.63;325830;30;1920;-77
2022/10/25 00:31:43;;;;;;;406.30;297.60;;;;;;;14.89;75.19;99977.91;328154;30;912;-77
2022/10/25 00:31:54;;;;;;;405.58;293.67;;;;;;;14.89;75.46;99974.41;322480;30;2934;-77
2022/10/25 00:32:04;;;;;;;403.57;290.93;;;;;;;14.89;75.44;99977.91;322981;30;2731;-77
2022/10/25 00:32:14;;;;;;;406.85;296.23;;;;;;;14.88;75.45;99981.47;322306;30;1199;-77
2022/10/25 00:32:25;;;;;;;410.47;299.97;;;;;;;14.89;75.43;99977.06;323589;30;3291;-77
2022/10/25 00:32:35;;;;;;;409.70;296.33;;;;;;;14.89;75.29;99974.41;323658;30;3398;-77
2022/10/25 00:32:46;;;;;;;408.55;295.85;;;;;;;14.88;75.29;99976.22;321882;30;3324;-76
2022/10/25 00:32:57;;;;;;;405.93;298.67;;;;;;;14.89;75.42;99975.28;320970;30;952;-77
2022/10/25 00:33:07;;;;;;;405.83;300.30;;;;;;;14.88;75.44;99980.63;318955;30;3209;-77
2022/10/25 00:33:17;;;;;;;403.48;291.23;;;;;;;14.86;75.61;99967.53;319911;30;2407;-77
2022/10/25 00:33:31;;;;;;;404.33;290.93;;;;;;;14.88;75.15;99975.34;322931;30;2147;-77
2022/10/25 00:33:42;;;;;;;403.52;292.80;;;;;;;14.86;75.45;99972.78;309797;31;1744;-77
2022/10/25 00:33:52;;;;;;;405.15;297.65;;;;;;;14.85;75.74;99973.72;311527;31;3070;-77
2022/10/25 00:34:03;;;;;;;405.53;292.43;;;;;;;14.87;76.06;99974.50;307539;32;3684;-77
2022/10/25 00:34:13;;;;;;;405.38;290.52;;;;;;;14.86;76.01;99975.44;304394;32;1004;-77
2022/10/25 00:34:24;;;;;;;402.60;289.60;;;;;;;14.88;75.28;99978.84;305719;31;3975;-77
2022/10/25 00:34:34;;;;;;;404.23;295.77;;;;;;;14.89;75.47;99975.28;306735;32;5744;-77
2022/10/25 00:34:44;;;;;;;406.93;299.70;;;;;;;14.89;75.52;99971.78;308661;32;884;-77
2022/10/25 00:34:55;;;;;;;408.48;301.42;;;;;;;14.88;75.58;99970.09;304498;32;4810;-77
2022/10/25 00:35:05;;;;;;;409.27;300.17;;;;;;;14.87;75.41;99971.88;302591;32;4539;-77
2022/10/25 00:35:16;;;;;;;406.40;298.05;;;;;;;14.88;75.54;99970.94;300967;32;1315;-77
2022/10/25 00:35:26;;;;;;;405.77;298.27;;;;;;;14.88;75.36;99975.34;295178;33;1803;-77
2022/10/25 00:35:37;;;;;;;407.27;296.63;;;;;;;14.88;75.42;99970.94;297927;32;3417;-77
2022/10/25 00:35:47;;;;;;;411.13;295.60;;;;;;;14.88;75.47;99970.09;296503;32;2921;-77
2022/10/25 00:36:08;;;;;;;413.00;296.33;;;;;;;14.90;75.21;99974.34;298035;33;1220;-77
2022/10/25 00:36:23;;;;;;;408.20;295.42;;;;;;;14.91;75.64;99975.19;295128;33;5217;-77
2022/10/25 00:36:33;;;;;;;405.33;290.23;;;;;;;14.90;75.00;99968.22;294506;33;6122;-77
2022/10/25 00:36:44;;;;;;;404.35;288.65;;;;;;;14.88;75.40;99970.09;291175;33;1345;-77
2022/10/25 00:36:54;;;;;;;405.93;289.10;;;;;;;14.88;75.65;99973.56;290890;33;7319;-77
2022/10/25 00:37:05;;;;;;;404.98;289.23;;;;;;;14.86;75.64;99966.69;288918;33;6736;-77
2022/10/25 00:37:15;;;;;;;405.05;292.52;;;;;;;14.86;75.36;99967.53;293223;33;1165;-77
2022/10/25 00:37:26;;;;;;;401.27;284.73;;;;;;;14.85;75.71;99971.09;289225;34;5621;-77
2022/10/25 00:37:36;;;;;;;404.03;290.03;;;;;;;14.85;75.58;99968.47;292268;33;5898;-77
2022/10/25 00:37:46;;;;;;;404.03;289.73;;;;;;;14.85;75.47;99965.81;292804;33;4993;-77
2022/10/25 00:37:57;;;;;;;406.77;297.50;;;;;;;14.85;75.31;99968.47;289887;34;1115;-77
2022/10/25 00:38:07;;;;;;;407.02;296.42;;;;;;;14.83;75.77;99972.97;287979;34;5187;-77
2022/10/25 00:38:18;;;;;;;407.83;297.60;;;;;;;14.82;75.52;99965.97;285015;34;6418;-77
2022/10/25 00:38:28;;;;;;;408.60;296.35;;;;;;;14.82;75.75;99971.25;280844;35;1772;-77
2022/10/25 00:38:39;;;;;;;409.27;299.25;;;;;;;14.84;75.59;99969.38;280553;35;7548;-77
2022/10/25 00:38:50;;;;;;;409.17;295.20;;;;;;;14.84;75.77;99966.75;278774;35;9182;-77
2022/10/25 00:39:00;;;;;;;410.38;298.40;;;;;;;14.84;75.73;99972.03;277357;35;1432;-77
2022/10/25 00:39:10;;;;;;;404.33;288.30;;;;;;;14.83;75.90;99972.97;275231;35;9698;-77
2022/10/25 00:39:21;;;;;;;402.55;288.08;;;;;;;14.83;76.00;99972.97;277775;35;8649;-77
2022/10/25 00:41:15;;;;;;;390.29;276.44;;;;;;;14.84;76.41;99974.66;2472371;27;20977;-92
2022/10/25 00:41:42;;;;;;;407.58;293.95;;;;;;;14.78;76.66;99953.91;348247;28;964;-92
2022/10/25 00:41:52;;;;;;;408.67;290.15;;;;;;;14.77;76.48;99951.34;345574;28;1294;-93
2022/10/25 00:42:04;;;;;;;410.98;296.92;;;;;;;14.85;76.68;99970.25;341388;29;1488;-93
2022/10/25 00:42:23;;;;;;;414.75;300.75;;;;;;;14.80;76.87;99973.13;342985;28;1661;-92
2022/10/25 00:42:33;;;;;;;408.05;289.52;;;;;;;14.78;77.06;99964.44;341626;29;1483;-92
2022/10/25 00:42:45;;;;;;;404.95;287.05;;;;;;;14.78;76.82;99969.72;343673;28;1051;-92
2022/10/25 00:43:00;;;;;;;407.75;293.02;;;;;;;14.74;76.79;99957.63;343252;28;1402;-92
2022/10/25 00:43:35;;;;;;;411.00;301.20;;;;;;;14.80;77.07;99962.56;343173;28;1331;-92
2022/10/25 00:43:48;;;;;;;402.70;279.13;;;;;;;14.82;76.82;99971.25;342705;28;1366;-92
2022/10/25 00:44:36;;;;;;;403.77;281.65;;;;;;;14.83;76.94;99966.84;342920;28;1507;-92
2022/10/25 00:45:00;;;;;;;399.58;290.70;;;;;;;14.77;77.18;99952.19;341393;29;1092;-92
2022/10/25 00:45:31;;;;;;;406.00;293.50;;;;;;;14.84;77.03;99964.13;338604;29;1596;-92
2022/10/25 00:46:30;;;;;;;400.80;284.17;;;;;;;14.78;77.17;99961.81;339726;29;1059;-92
2022/10/25 00:46:41;;;;;;;405.73;286.95;;;;;;;14.75;77.24;99963.75;339391;29;1342;-92
2022/10/25 00:46:52;;;;;;;408.17;291.90;;;;;;;14.74;77.27;99957.63;344443;28;1539;-92
2022/10/25 00:47:36;;;;;;;409.33;294.15;;;;;;;14.76;77.16;99958.41;342117;28;1574;-92
2022/10/25 00:48:00;;;;;;;404.35;290.60;;;;;;;14.78;77.33;99960.94;340525;29;1326;-92
2022/10/25 00:48:11;;;;;;;403.76;281.60;;;;;;;14.68;77.03;99942.16;338524;29;1613;-92
2022/10/25 00:48:21;;;;;;;411.47;292.83;;;;;;;14.67;77.21;99951.00;338742;29;1401;-92
2022/10/25 00:48:34;;;;;;;412.48;298.83;;;;;;;14.66;77.60;99951.94;339918;29;1360;-92
2022/10/25 00:48:47;;;;;;;410.98;293.88;;;;;;;14.66;78.10;99961.63;337090;29;1366;-92
2022/10/25 00:49:00;;;;;;;408.15;288.83;;;;;;;14.59;77.93;99943.50;337596;29;1345;-92
2022/10/25 00:49:15;;;;;;;411.02;292.65;;;;;;;14.58;78.10;99946.22;336579;29;993;-92
2022/10/25 00:49:28;;;;;;;413.65;295.23;;;;;;;14.62;77.69;99942.50;338686;29;938;-92
2022/10/25 00:49:41;;;;;;;415.55;298.83;;;;;;;14.61;77.76;99946.91;341234;29;1280;-92
2022/10/25 00:49:59;;;;;;;414.38;302.77;;;;;;;14.69;78.09;99954.41;339946;29;1378;-92
2022/10/25 00:50:40;;;;;;;411.42;295.98;;;;;;;14.71;77.68;99952.53;337448;29;1326;-92
2022/10/25 00:50:51;;;;;;;411.35;297.83;;;;;;;14.64;77.20;99949.38;332224;29;1010;-92
2022/10/25 00:51:02;;;;;;;410.20;294.27;;;;;;;14.67;77.30;99943.09;330640;29;1467;-92
2022/10/25 00:51:12;;;;;;;408.10;293.65;;;;;;;14.65;77.85;99947.59;329904;30;1340;-92
2022/10/25 00:51:32;;;;;;;412.10;295.48;;;;;;;14.67;77.01;99937.84;333618;29;971;-92
2022/10/25 00:51:52;;;;;;;413.88;301.42;;;;;;;14.75;77.56;99950.56;332315;29;1228;-92
2022/10/25 00:52:04;;;;;;;410.90;298.20;;;;;;;14.70;77.73;99939.47;327111;30;1977;-92
2022/10/25 00:52:14;;;;;;;408.45;294.17;;;;;;;14.70;77.38;99948.22;327622;29;1359;-92
2022/10/25 00:52:27;;;;;;;415.60;303.05;;;;;;;14.70;77.34;99942.94;328793;30;915;-93
2022/10/25 00:52:45;;;;;;;417.65;302.40;;;;;;;14.74;77.29;99946.22;325234;30;1590;-93
2022/10/25 00:53:08;;;;;;;406.67;287.45;;;;;;;14.69;77.51;99951.78;326910;30;984;-92
2022/10/25 00:53:26;;;;;;;404.48;288.23;;;;;;;14.63;77.56;99941.56;324655;30;1024;-92
2022/10/25 00:53:40;;;;;;;410.90;297.83;;;;;;;14.65;77.66;99937.06;323014;30;1256;-92
2022/10/25 00:53:51;;;;;;;412.60;304.77;;;;;;;14.70;77.57;99945.56;324032;30;1446;-92
2022/10/25 00:54:02;;;;;;;413.25;308.25;;;;;;;14.63;77.41;99938.91;323122;30;1569;-93
2022/10/25 00:54:16;;;;;;;412.78;306.58;;;;;;;14.74;77.43;99951.50;323842;30;1452;-93
2022/10/25 00:54:33;;;;;;;410.00;291.00;;;;;;;14.73;77.54;99949.84;318140;31;918;-93
2022/10/25 00:54:49;;;;;;;411.63;292.02;;;;;;;14.69;77.40;99946.50;318221;31;1414;-92
2022/10/25 00:55:00;;;;;;;408.00;292.02;;;;;;;14.70;77.31;99957.91;312503;31;1287;-93
2022/10/25 00:55:11;;;;;;;407.75;288.33;;;;;;;14.66;77.81;99948.44;312449;31;1336;-92
2022/10/25 00:55:23;;;;;;;410.85;290.63;;;;;;;14.70;77.44;99958.75;311379;31;1328;-92
2022/10/25 00:55:34;;;;;;;415.17;295.10;;;;;;;14.71;77.33;99957.81;309660;31;1433;-92
2022/10/25 00:55:47;;;;;;;413.63;293.00;;;;;;;14.64;77.30;99946.75;308342;32;1050;-93
2022/10/25 00:56:12;;;;;;;413.65;295.25;;;;;;;14.70;77.24;99950.84;305958;32;1324;-93
2022/10/25 00:56:28;;;;;;;412.23;294.08;;;;;;;14.60;77.34;99928.53;301546;32;2309;-92
2022/10/25 00:56:42;;;;;;;415.95;296.35;;;;;;;14.70;77.22;99940.31;298306;33;1051;-92
2022/10/25 00:56:52;;;;;;;415.95;297.48;;;;;;;14.66;77.15;99944.03;295356;33;2007;-92
2022/10/25 00:57:16;;;;;;;411.55;291.83;;;;;;;14.74;77.28;99957.63;296679;33;1956;-92
2022/10/25 00:57:40;;;;;;;410.27;295.60;;;;;;;14.71;77.61;99957.81;297541;33;1546;-92
2022/10/25 00:57:57;;;;;;;414.42;311.02;;;;;;;14.67;77.26;99951.00;291464;33;1993;-93
2022/10/25 00:58:12;;;;;;;419.00;319.95;;;;;;;14.73;77.32;99950.66;286505;34;2211;-93
2022/10/25 00:58:24;;;;;;;416.48;318.60;;;;;;;14.74;77.14;99951.50;285007;34;2412;-93
2022/10/25 00:58:36;;;;;;;417.58;319.15;;;;;;;14.73;77.24;99950.66;282019;34;2411;-92
2022/10/25 00:58:50;;;;;;;421.88;327.77;;;;;;;14.72;76.93;99956.88;280424;34;2623;-93
2022/10/25 00:59:04;;;;;;;424.75;327.80;;;;;;;14.66;77.30;99938.75;280767;35;2361;-93
2022/10/25 00:59:21;;;;;;;427.83;324.58;;;;;;;14.74;77.19;99951.50;277344;35;1576;-93
2022/10/25 00:59:33;;;;;;;424.83;318.10;;;;;;;14.70;77.22;99945.56;276979;35;1956;-92
2022/10/25 00:59:43;;;;;;;425.67;314.17;;;;;;;14.75;77.09;99953.22;276121;35;1498;-92
2022/10/25 00:59:56;;;;;;;429.23;319.80;;;;;;;14.64;77.03;99935.34;272316;36;1360;-92
2022/10/25 01:00:15;;;;;;;428.55;320.00;;;;;;;14.68;77.27;99943.94;271218;35;2259;-92
2022/10/25 01:00:26;;;;;;;430.38;321.48;;;;;;;14.76;77.38;99952.28;266832;36;3854;-92